<?xml version="1.0" encoding="utf-8"?>
<gpx xmlns:xsi="http://www.w3.org/2001/XMLSchema-instance" xmlns:xsd="http://www.w3.org/2001/XMLSchema" version="1.1" creator="Shapelink.com" xmlns="http://www.topografix.com/GPX/1/1" xmlns:gpxtpx="http://www.garmin.com/xmlschemas/TrackPointExtension/v1">
  <metadata>
    <name>Gåing 3.10 km, 2012-07-07</name>
    <desc></desc>
    <author><name>Mikael Blom</name></author> 
    <time>2012-07-07T08:37:52Z</time>
  </metadata>
  <trk>
    <name>Gåing 3.10 km, 2012-07-07</name>
    <trkseg>
      <trkpt lat="59.9787625" lon="17.7398071">
        <ele>24.1703</ele>
        <time>2012-07-07T08:37:52Z</time>
      </trkpt>
      <trkpt lat="59.9787745" lon="17.7395864">
        <ele>25.1317</ele>
        <time>2012-07-07T08:37:59Z</time>
      </trkpt>
      <trkpt lat="59.9788547" lon="17.7395096">
        <ele>25.6123</ele>
        <time>2012-07-07T08:38:03Z</time>
      </trkpt>
      <trkpt lat="59.9788778" lon="17.7394277">
        <ele>27.0543</ele>
        <time>2012-07-07T08:38:07Z</time>
      </trkpt>
      <trkpt lat="59.9788673" lon="17.7393129">
        <ele>27.0543</ele>
        <time>2012-07-07T08:38:12Z</time>
      </trkpt>
      <trkpt lat="59.9788541" lon="17.7391915">
        <ele>27.0543</ele>
        <time>2012-07-07T08:38:21Z</time>
      </trkpt>
      <trkpt lat="59.9787041" lon="17.7393">
        <ele>34.2642</ele>
        <time>2012-07-07T08:38:28Z</time>
      </trkpt>
      <trkpt lat="59.9786732" lon="17.7393565">
        <ele>53.4905</ele>
        <time>2012-07-07T08:38:34Z</time>
      </trkpt>
      <trkpt lat="59.9785678" lon="17.7393388">
        <ele>53.9712</ele>
        <time>2012-07-07T08:38:40Z</time>
      </trkpt>
      <trkpt lat="59.9785123" lon="17.7393521">
        <ele>60.2197</ele>
        <time>2012-07-07T08:38:45Z</time>
      </trkpt>
      <trkpt lat="59.9784658" lon="17.7393465">
        <ele>62.1423</ele>
        <time>2012-07-07T08:38:50Z</time>
      </trkpt>
      <trkpt lat="59.9783776" lon="17.7393624">
        <ele>61.6617</ele>
        <time>2012-07-07T08:38:59Z</time>
      </trkpt>
      <trkpt lat="59.9782093" lon="17.7393114">
        <ele>50.126</ele>
        <time>2012-07-07T08:39:03Z</time>
      </trkpt>
      <trkpt lat="59.978071" lon="17.7392704">
        <ele>43.3966</ele>
        <time>2012-07-07T08:39:09Z</time>
      </trkpt>
      <trkpt lat="59.9779361" lon="17.7392151">
        <ele>42.4354</ele>
        <time>2012-07-07T08:39:18Z</time>
      </trkpt>
      <trkpt lat="59.977813" lon="17.7391422">
        <ele>44.358</ele>
        <time>2012-07-07T08:39:25Z</time>
      </trkpt>
      <trkpt lat="59.9777063" lon="17.7391165">
        <ele>47.2418</ele>
        <time>2012-07-07T08:39:31Z</time>
      </trkpt>
      <trkpt lat="59.9776006" lon="17.739104">
        <ele>44.8386</ele>
        <time>2012-07-07T08:39:39Z</time>
      </trkpt>
      <trkpt lat="59.977487" lon="17.7391133">
        <ele>40.9934</ele>
        <time>2012-07-07T08:39:46Z</time>
      </trkpt>
      <trkpt lat="59.9774595" lon="17.7391165">
        <ele>39.5513</ele>
        <time>2012-07-07T08:39:48Z</time>
      </trkpt>
      <trkpt lat="59.9773405" lon="17.7391009">
        <ele>35.7061</ele>
        <time>2012-07-07T08:39:55Z</time>
      </trkpt>
      <trkpt lat="59.9772575" lon="17.7390679">
        <ele>33.7834</ele>
        <time>2012-07-07T08:40:00Z</time>
      </trkpt>
      <trkpt lat="59.9771795" lon="17.7391396">
        <ele>32.8223</ele>
        <time>2012-07-07T08:40:05Z</time>
      </trkpt>
      <trkpt lat="59.9770954" lon="17.7392132">
        <ele>31.8607</ele>
        <time>2012-07-07T08:40:11Z</time>
      </trkpt>
      <trkpt lat="59.9770102" lon="17.7392936">
        <ele>32.8223</ele>
        <time>2012-07-07T08:40:17Z</time>
      </trkpt>
      <trkpt lat="59.9769263" lon="17.7393235">
        <ele>31.8607</ele>
        <time>2012-07-07T08:40:23Z</time>
      </trkpt>
      <trkpt lat="59.9768442" lon="17.7394138">
        <ele>29.9381</ele>
        <time>2012-07-07T08:40:29Z</time>
      </trkpt>
      <trkpt lat="59.9767053" lon="17.7393976">
        <ele>30.4188</ele>
        <time>2012-07-07T08:40:36Z</time>
      </trkpt>
      <trkpt lat="59.9765768" lon="17.7394543">
        <ele>30.4188</ele>
        <time>2012-07-07T08:40:44Z</time>
      </trkpt>
      <trkpt lat="59.9764779" lon="17.739506">
        <ele>28.0155</ele>
        <time>2012-07-07T08:40:51Z</time>
      </trkpt>
      <trkpt lat="59.9764179" lon="17.7396594">
        <ele>27.0543</ele>
        <time>2012-07-07T08:40:58Z</time>
      </trkpt>
      <trkpt lat="59.9763738" lon="17.7397786">
        <ele>27.5349</ele>
        <time>2012-07-07T08:41:03Z</time>
      </trkpt>
      <trkpt lat="59.9763538" lon="17.7398841">
        <ele>29.9381</ele>
        <time>2012-07-07T08:41:08Z</time>
      </trkpt>
      <trkpt lat="59.9762864" lon="17.7400688">
        <ele>32.3416</ele>
        <time>2012-07-07T08:41:15Z</time>
      </trkpt>
      <trkpt lat="59.9761999" lon="17.7403058">
        <ele>36.6675</ele>
        <time>2012-07-07T08:41:23Z</time>
      </trkpt>
      <trkpt lat="59.9761492" lon="17.7405028">
        <ele>38.5901</ele>
        <time>2012-07-07T08:41:31Z</time>
      </trkpt>
      <trkpt lat="59.9761035" lon="17.7406741">
        <ele>36.6675</ele>
        <time>2012-07-07T08:41:38Z</time>
      </trkpt>
      <trkpt lat="59.9760443" lon="17.7408958">
        <ele>36.1868</ele>
        <time>2012-07-07T08:41:47Z</time>
      </trkpt>
      <trkpt lat="59.9760037" lon="17.7411109">
        <ele>36.1868</ele>
        <time>2012-07-07T08:41:55Z</time>
      </trkpt>
      <trkpt lat="59.9759661" lon="17.741278">
        <ele>36.1868</ele>
        <time>2012-07-07T08:42:01Z</time>
      </trkpt>
      <trkpt lat="59.9759409" lon="17.741403">
        <ele>33.7834</ele>
        <time>2012-07-07T08:42:06Z</time>
      </trkpt>
      <trkpt lat="59.9758875" lon="17.7415947">
        <ele>32.8223</ele>
        <time>2012-07-07T08:42:13Z</time>
      </trkpt>
      <trkpt lat="59.9758436" lon="17.7417693">
        <ele>32.3416</ele>
        <time>2012-07-07T08:42:21Z</time>
      </trkpt>
      <trkpt lat="59.9757784" lon="17.7419806">
        <ele>33.3029</ele>
        <time>2012-07-07T08:42:29Z</time>
      </trkpt>
      <trkpt lat="59.9757156" lon="17.742247">
        <ele>35.7061</ele>
        <time>2012-07-07T08:42:38Z</time>
      </trkpt>
      <trkpt lat="59.9756826" lon="17.7423495">
        <ele>36.1868</ele>
        <time>2012-07-07T08:42:42Z</time>
      </trkpt>
      <trkpt lat="59.9756285" lon="17.7425474">
        <ele>37.1481</ele>
        <time>2012-07-07T08:42:50Z</time>
      </trkpt>
      <trkpt lat="59.9755602" lon="17.7427598">
        <ele>36.6675</ele>
        <time>2012-07-07T08:42:58Z</time>
      </trkpt>
      <trkpt lat="59.9755018" lon="17.7429699">
        <ele>37.6287</ele>
        <time>2012-07-07T08:43:05Z</time>
      </trkpt>
      <trkpt lat="59.9754674" lon="17.7431294">
        <ele>38.1094</ele>
        <time>2012-07-07T08:43:11Z</time>
      </trkpt>
      <trkpt lat="59.9754191" lon="17.7433351">
        <ele>39.5513</ele>
        <time>2012-07-07T08:43:18Z</time>
      </trkpt>
      <trkpt lat="59.9753746" lon="17.7435612">
        <ele>40.5128</ele>
        <time>2012-07-07T08:43:26Z</time>
      </trkpt>
      <trkpt lat="59.9753307" lon="17.7437719">
        <ele>40.5128</ele>
        <time>2012-07-07T08:43:33Z</time>
      </trkpt>
      <trkpt lat="59.9752898" lon="17.7439774">
        <ele>37.1481</ele>
        <time>2012-07-07T08:43:41Z</time>
      </trkpt>
      <trkpt lat="59.9752824" lon="17.744006">
        <ele>37.1481</ele>
        <time>2012-07-07T08:43:42Z</time>
      </trkpt>
      <trkpt lat="59.9752509" lon="17.7442499">
        <ele>36.1868</ele>
        <time>2012-07-07T08:43:51Z</time>
      </trkpt>
      <trkpt lat="59.9752134" lon="17.7444142">
        <ele>34.2642</ele>
        <time>2012-07-07T08:43:57Z</time>
      </trkpt>
      <trkpt lat="59.9751757" lon="17.744598">
        <ele>33.3029</ele>
        <time>2012-07-07T08:44:03Z</time>
      </trkpt>
      <trkpt lat="59.975108" lon="17.7448182">
        <ele>33.7834</ele>
        <time>2012-07-07T08:44:11Z</time>
      </trkpt>
      <trkpt lat="59.9750755" lon="17.744918">
        <ele>32.8223</ele>
        <time>2012-07-07T08:44:15Z</time>
      </trkpt>
      <trkpt lat="59.9749991" lon="17.7451441">
        <ele>33.3029</ele>
        <time>2012-07-07T08:44:24Z</time>
      </trkpt>
      <trkpt lat="59.9749358" lon="17.7453077">
        <ele>34.7449</ele>
        <time>2012-07-07T08:44:31Z</time>
      </trkpt>
      <trkpt lat="59.9748582" lon="17.7454957">
        <ele>36.1868</ele>
        <time>2012-07-07T08:44:39Z</time>
      </trkpt>
      <trkpt lat="59.974817" lon="17.7456237">
        <ele>36.6675</ele>
        <time>2012-07-07T08:44:43Z</time>
      </trkpt>
      <trkpt lat="59.9747635" lon="17.7457656">
        <ele>36.6675</ele>
        <time>2012-07-07T08:44:49Z</time>
      </trkpt>
      <trkpt lat="59.9747153" lon="17.7458262">
        <ele>36.1868</ele>
        <time>2012-07-07T08:44:53Z</time>
      </trkpt>
      <trkpt lat="59.9746543" lon="17.7459522">
        <ele>35.7061</ele>
        <time>2012-07-07T08:44:59Z</time>
      </trkpt>
      <trkpt lat="59.9746236" lon="17.7460108">
        <ele>34.7449</ele>
        <time>2012-07-07T08:45:02Z</time>
      </trkpt>
      <trkpt lat="59.9745347" lon="17.746107">
        <ele>33.7834</ele>
        <time>2012-07-07T08:45:09Z</time>
      </trkpt>
      <trkpt lat="59.9744481" lon="17.7462532">
        <ele>35.7061</ele>
        <time>2012-07-07T08:45:16Z</time>
      </trkpt>
      <trkpt lat="59.9743667" lon="17.7464096">
        <ele>35.7061</ele>
        <time>2012-07-07T08:45:23Z</time>
      </trkpt>
      <trkpt lat="59.9742663" lon="17.7465552">
        <ele>39.0707</ele>
        <time>2012-07-07T08:45:29Z</time>
      </trkpt>
      <trkpt lat="59.9741638" lon="17.7466701">
        <ele>39.5513</ele>
        <time>2012-07-07T08:45:36Z</time>
      </trkpt>
      <trkpt lat="59.9740844" lon="17.7467718">
        <ele>38.1094</ele>
        <time>2012-07-07T08:45:42Z</time>
      </trkpt>
      <trkpt lat="59.9739878" lon="17.74691">
        <ele>37.1481</ele>
        <time>2012-07-07T08:45:50Z</time>
      </trkpt>
      <trkpt lat="59.9739164" lon="17.7470148">
        <ele>39.0707</ele>
        <time>2012-07-07T08:45:55Z</time>
      </trkpt>
      <trkpt lat="59.9738403" lon="17.7470738">
        <ele>40.9934</ele>
        <time>2012-07-07T08:46:01Z</time>
      </trkpt>
      <trkpt lat="59.9737359" lon="17.7472002">
        <ele>41.474</ele>
        <time>2012-07-07T08:46:09Z</time>
      </trkpt>
      <trkpt lat="59.9736673" lon="17.7472706">
        <ele>40.5128</ele>
        <time>2012-07-07T08:46:15Z</time>
      </trkpt>
      <trkpt lat="59.9736062" lon="17.7473012">
        <ele>40.0321</ele>
        <time>2012-07-07T08:46:21Z</time>
      </trkpt>
      <trkpt lat="59.9735199" lon="17.7474332">
        <ele>39.5513</ele>
        <time>2012-07-07T08:46:27Z</time>
      </trkpt>
      <trkpt lat="59.9734299" lon="17.7475104">
        <ele>39.0707</ele>
        <time>2012-07-07T08:46:34Z</time>
      </trkpt>
      <trkpt lat="59.9733463" lon="17.7475934">
        <ele>38.1094</ele>
        <time>2012-07-07T08:46:40Z</time>
      </trkpt>
      <trkpt lat="59.9732557" lon="17.7476957">
        <ele>35.7061</ele>
        <time>2012-07-07T08:46:47Z</time>
      </trkpt>
      <trkpt lat="59.97317" lon="17.7478168">
        <ele>37.1481</ele>
        <time>2012-07-07T08:46:53Z</time>
      </trkpt>
      <trkpt lat="59.9731226" lon="17.7478461">
        <ele>36.6675</ele>
        <time>2012-07-07T08:46:56Z</time>
      </trkpt>
      <trkpt lat="59.9730712" lon="17.7478797">
        <ele>36.1868</ele>
        <time>2012-07-07T08:47:00Z</time>
      </trkpt>
      <trkpt lat="59.9730023" lon="17.7479735">
        <ele>35.2255</ele>
        <time>2012-07-07T08:47:06Z</time>
      </trkpt>
      <trkpt lat="59.9729166" lon="17.7481216">
        <ele>34.7449</ele>
        <time>2012-07-07T08:47:13Z</time>
      </trkpt>
      <trkpt lat="59.972882" lon="17.7481771">
        <ele>35.7061</ele>
        <time>2012-07-07T08:47:16Z</time>
      </trkpt>
      <trkpt lat="59.9728256" lon="17.7482934">
        <ele>34.7449</ele>
        <time>2012-07-07T08:47:21Z</time>
      </trkpt>
      <trkpt lat="59.9727524" lon="17.7484791">
        <ele>35.2255</ele>
        <time>2012-07-07T08:47:28Z</time>
      </trkpt>
      <trkpt lat="59.9727034" lon="17.7486453">
        <ele>35.7061</ele>
        <time>2012-07-07T08:47:34Z</time>
      </trkpt>
      <trkpt lat="59.9726291" lon="17.7487829">
        <ele>36.6675</ele>
        <time>2012-07-07T08:47:40Z</time>
      </trkpt>
      <trkpt lat="59.9725728" lon="17.748909">
        <ele>34.2642</ele>
        <time>2012-07-07T08:47:47Z</time>
      </trkpt>
      <trkpt lat="59.9725459" lon="17.7489918">
        <ele>28.9769</ele>
        <time>2012-07-07T08:47:53Z</time>
      </trkpt>
      <trkpt lat="59.9724832" lon="17.7490741">
        <ele>23.6896</ele>
        <time>2012-07-07T08:48:01Z</time>
      </trkpt>
      <trkpt lat="59.9724431" lon="17.7491663">
        <ele>19.3638</ele>
        <time>2012-07-07T08:48:07Z</time>
      </trkpt>
      <trkpt lat="59.9724217" lon="17.7492652">
        <ele>17.9218</ele>
        <time>2012-07-07T08:48:12Z</time>
      </trkpt>
      <trkpt lat="59.9724154" lon="17.7492779">
        <ele>16.9604</ele>
        <time>2012-07-07T08:48:13Z</time>
      </trkpt>
      <trkpt lat="59.9723765" lon="17.7493813">
        <ele>15.999</ele>
        <time>2012-07-07T08:48:19Z</time>
      </trkpt>
      <trkpt lat="59.9723466" lon="17.749441">
        <ele>17.4412</ele>
        <time>2012-07-07T08:48:22Z</time>
      </trkpt>
      <trkpt lat="59.9722982" lon="17.7495653">
        <ele>15.0377</ele>
        <time>2012-07-07T08:48:28Z</time>
      </trkpt>
      <trkpt lat="59.9722732" lon="17.7496326">
        <ele>13.5958</ele>
        <time>2012-07-07T08:48:31Z</time>
      </trkpt>
      <trkpt lat="59.972206" lon="17.7497364">
        <ele>10.7118</ele>
        <time>2012-07-07T08:48:38Z</time>
      </trkpt>
      <trkpt lat="59.9721306" lon="17.7498451">
        <ele>11.6732</ele>
        <time>2012-07-07T08:48:44Z</time>
      </trkpt>
      <trkpt lat="59.9720098" lon="17.7500733">
        <ele>15.999</ele>
        <time>2012-07-07T08:48:52Z</time>
      </trkpt>
      <trkpt lat="59.9719673" lon="17.7501423">
        <ele>17.9218</ele>
        <time>2012-07-07T08:48:54Z</time>
      </trkpt>
      <trkpt lat="59.9718237" lon="17.7504554">
        <ele>30.4188</ele>
        <time>2012-07-07T08:49:00Z</time>
      </trkpt>
      <trkpt lat="59.9717208" lon="17.7506128">
        <ele>36.1868</ele>
        <time>2012-07-07T08:49:05Z</time>
      </trkpt>
      <trkpt lat="59.9716091" lon="17.750794">
        <ele>41.9547</ele>
        <time>2012-07-07T08:49:11Z</time>
      </trkpt>
      <trkpt lat="59.9715281" lon="17.7509726">
        <ele>42.916</ele>
        <time>2012-07-07T08:49:17Z</time>
      </trkpt>
      <trkpt lat="59.9714306" lon="17.7511032">
        <ele>44.358</ele>
        <time>2012-07-07T08:49:24Z</time>
      </trkpt>
      <trkpt lat="59.971383" lon="17.7511095">
        <ele>43.8773</ele>
        <time>2012-07-07T08:49:27Z</time>
      </trkpt>
      <trkpt lat="59.9713092" lon="17.7512134">
        <ele>41.9547</ele>
        <time>2012-07-07T08:49:34Z</time>
      </trkpt>
      <trkpt lat="59.9712157" lon="17.7513386">
        <ele>43.8773</ele>
        <time>2012-07-07T08:49:40Z</time>
      </trkpt>
      <trkpt lat="59.9710955" lon="17.7515106">
        <ele>47.2418</ele>
        <time>2012-07-07T08:49:47Z</time>
      </trkpt>
      <trkpt lat="59.9710002" lon="17.7515641">
        <ele>43.8773</ele>
        <time>2012-07-07T08:49:55Z</time>
      </trkpt>
      <trkpt lat="59.9709156" lon="17.7517281">
        <ele>43.3966</ele>
        <time>2012-07-07T08:50:01Z</time>
      </trkpt>
      <trkpt lat="59.9708743" lon="17.75179">
        <ele>42.916</ele>
        <time>2012-07-07T08:50:04Z</time>
      </trkpt>
      <trkpt lat="59.970797" lon="17.7519115">
        <ele>38.1094</ele>
        <time>2012-07-07T08:50:12Z</time>
      </trkpt>
      <trkpt lat="59.9707396" lon="17.7519877">
        <ele>31.8607</ele>
        <time>2012-07-07T08:50:19Z</time>
      </trkpt>
      <trkpt lat="59.9706711" lon="17.7521008">
        <ele>28.4962</ele>
        <time>2012-07-07T08:50:26Z</time>
      </trkpt>
      <trkpt lat="59.9705904" lon="17.7522678">
        <ele>28.0155</ele>
        <time>2012-07-07T08:50:33Z</time>
      </trkpt>
      <trkpt lat="59.970531" lon="17.752414">
        <ele>28.9769</ele>
        <time>2012-07-07T08:50:40Z</time>
      </trkpt>
      <trkpt lat="59.9704657" lon="17.7525811">
        <ele>31.3801</ele>
        <time>2012-07-07T08:50:47Z</time>
      </trkpt>
      <trkpt lat="59.9704037" lon="17.7527374">
        <ele>32.8223</ele>
        <time>2012-07-07T08:50:53Z</time>
      </trkpt>
      <trkpt lat="59.9703385" lon="17.7528884">
        <ele>34.7449</ele>
        <time>2012-07-07T08:50:59Z</time>
      </trkpt>
      <trkpt lat="59.9702807" lon="17.7530567">
        <ele>35.7061</ele>
        <time>2012-07-07T08:51:06Z</time>
      </trkpt>
      <trkpt lat="59.970253" lon="17.7531295">
        <ele>37.6287</ele>
        <time>2012-07-07T08:51:08Z</time>
      </trkpt>
      <trkpt lat="59.970215" lon="17.7532971">
        <ele>36.1868</ele>
        <time>2012-07-07T08:51:16Z</time>
      </trkpt>
      <trkpt lat="59.970178" lon="17.7534182">
        <ele>35.2255</ele>
        <time>2012-07-07T08:51:22Z</time>
      </trkpt>
      <trkpt lat="59.9701346" lon="17.7535419">
        <ele>31.8607</ele>
        <time>2012-07-07T08:51:29Z</time>
      </trkpt>
      <trkpt lat="59.9700564" lon="17.7537372">
        <ele>31.3801</ele>
        <time>2012-07-07T08:51:37Z</time>
      </trkpt>
      <trkpt lat="59.9699964" lon="17.7538682">
        <ele>28.4962</ele>
        <time>2012-07-07T08:51:45Z</time>
      </trkpt>
      <trkpt lat="59.969915" lon="17.7540488">
        <ele>29.4575</ele>
        <time>2012-07-07T08:51:52Z</time>
      </trkpt>
      <trkpt lat="59.9698796" lon="17.7541114">
        <ele>29.4575</ele>
        <time>2012-07-07T08:51:55Z</time>
      </trkpt>
      <trkpt lat="59.9697912" lon="17.7542931">
        <ele>29.9381</ele>
        <time>2012-07-07T08:52:03Z</time>
      </trkpt>
      <trkpt lat="59.9697077" lon="17.7544617">
        <ele>30.8995</ele>
        <time>2012-07-07T08:52:10Z</time>
      </trkpt>
      <trkpt lat="59.96962" lon="17.7546506">
        <ele>31.3801</ele>
        <time>2012-07-07T08:52:18Z</time>
      </trkpt>
      <trkpt lat="59.9695516" lon="17.7547941">
        <ele>31.8607</ele>
        <time>2012-07-07T08:52:24Z</time>
      </trkpt>
      <trkpt lat="59.9694623" lon="17.754966">
        <ele>33.7834</ele>
        <time>2012-07-07T08:52:31Z</time>
      </trkpt>
      <trkpt lat="59.9693652" lon="17.7551757">
        <ele>32.8223</ele>
        <time>2012-07-07T08:52:41Z</time>
      </trkpt>
      <trkpt lat="59.9692879" lon="17.7553606">
        <ele>32.8223</ele>
        <time>2012-07-07T08:52:48Z</time>
      </trkpt>
      <trkpt lat="59.9692659" lon="17.7554427">
        <ele>33.3029</ele>
        <time>2012-07-07T08:52:50Z</time>
      </trkpt>
      <trkpt lat="59.9692478" lon="17.7554803">
        <ele>31.8607</ele>
        <time>2012-07-07T08:52:52Z</time>
      </trkpt>
      <trkpt lat="59.9692224" lon="17.7554405">
        <ele>32.3416</ele>
        <time>2012-07-07T08:52:55Z</time>
      </trkpt>
      <trkpt lat="59.9692629" lon="17.7553137">
        <ele>29.9381</ele>
        <time>2012-07-07T08:52:59Z</time>
      </trkpt>
      <trkpt lat="59.9693213" lon="17.7552013">
        <ele>29.4575</ele>
        <time>2012-07-07T08:53:04Z</time>
      </trkpt>
      <trkpt lat="59.969343" lon="17.7551355">
        <ele>29.9381</ele>
        <time>2012-07-07T08:53:07Z</time>
      </trkpt>
      <trkpt lat="59.9693696" lon="17.7550578">
        <ele>30.4188</ele>
        <time>2012-07-07T08:53:10Z</time>
      </trkpt>
      <trkpt lat="59.9694452" lon="17.7549268">
        <ele>32.3416</ele>
        <time>2012-07-07T08:53:17Z</time>
      </trkpt>
      <trkpt lat="59.9695171" lon="17.7547693">
        <ele>30.8995</ele>
        <time>2012-07-07T08:53:24Z</time>
      </trkpt>
      <trkpt lat="59.9695995" lon="17.7546105">
        <ele>29.9381</ele>
        <time>2012-07-07T08:53:31Z</time>
      </trkpt>
      <trkpt lat="59.9696426" lon="17.7544818">
        <ele>30.4188</ele>
        <time>2012-07-07T08:53:36Z</time>
      </trkpt>
      <trkpt lat="59.9697378" lon="17.7543075">
        <ele>29.9381</ele>
        <time>2012-07-07T08:53:44Z</time>
      </trkpt>
      <trkpt lat="59.9697843" lon="17.7541897">
        <ele>30.4188</ele>
        <time>2012-07-07T08:53:49Z</time>
      </trkpt>
      <trkpt lat="59.969803" lon="17.7541024">
        <ele>29.9381</ele>
        <time>2012-07-07T08:53:52Z</time>
      </trkpt>
      <trkpt lat="59.9698572" lon="17.75401">
        <ele>32.3416</ele>
        <time>2012-07-07T08:53:57Z</time>
      </trkpt>
      <trkpt lat="59.9699279" lon="17.7538858">
        <ele>34.2642</ele>
        <time>2012-07-07T08:54:03Z</time>
      </trkpt>
      <trkpt lat="59.9699963" lon="17.753741">
        <ele>34.7449</ele>
        <time>2012-07-07T08:54:10Z</time>
      </trkpt>
      <trkpt lat="59.97006" lon="17.7535681">
        <ele>34.7449</ele>
        <time>2012-07-07T08:54:17Z</time>
      </trkpt>
      <trkpt lat="59.9701093" lon="17.7534282">
        <ele>32.8223</ele>
        <time>2012-07-07T08:54:23Z</time>
      </trkpt>
      <trkpt lat="59.9701588" lon="17.7532855">
        <ele>32.3416</ele>
        <time>2012-07-07T08:54:29Z</time>
      </trkpt>
      <trkpt lat="59.9702033" lon="17.7531845">
        <ele>31.3801</ele>
        <time>2012-07-07T08:54:34Z</time>
      </trkpt>
      <trkpt lat="59.9702795" lon="17.752971">
        <ele>31.3801</ele>
        <time>2012-07-07T08:54:43Z</time>
      </trkpt>
      <trkpt lat="59.9703516" lon="17.7528013">
        <ele>31.3801</ele>
        <time>2012-07-07T08:54:50Z</time>
      </trkpt>
      <trkpt lat="59.9703805" lon="17.7527381">
        <ele>30.8995</ele>
        <time>2012-07-07T08:54:53Z</time>
      </trkpt>
      <trkpt lat="59.9704412" lon="17.7525791">
        <ele>31.3801</ele>
        <time>2012-07-07T08:55:00Z</time>
      </trkpt>
      <trkpt lat="59.9704676" lon="17.7523762">
        <ele>32.3416</ele>
        <time>2012-07-07T08:55:06Z</time>
      </trkpt>
      <trkpt lat="59.9704755" lon="17.7523491">
        <ele>32.8223</ele>
        <time>2012-07-07T08:55:07Z</time>
      </trkpt>
      <trkpt lat="59.9705551" lon="17.7522189">
        <ele>31.3801</ele>
        <time>2012-07-07T08:55:14Z</time>
      </trkpt>
      <trkpt lat="59.9706001" lon="17.7521119">
        <ele>30.4188</ele>
        <time>2012-07-07T08:55:19Z</time>
      </trkpt>
      <trkpt lat="59.970666" lon="17.7520119">
        <ele>29.4575</ele>
        <time>2012-07-07T08:55:24Z</time>
      </trkpt>
      <trkpt lat="59.9707178" lon="17.7519212">
        <ele>29.9381</ele>
        <time>2012-07-07T08:55:28Z</time>
      </trkpt>
      <trkpt lat="59.9708135" lon="17.7517765">
        <ele>29.4575</ele>
        <time>2012-07-07T08:55:36Z</time>
      </trkpt>
      <trkpt lat="59.9708982" lon="17.7516952">
        <ele>29.4575</ele>
        <time>2012-07-07T08:55:42Z</time>
      </trkpt>
      <trkpt lat="59.9710136" lon="17.7515782">
        <ele>29.9381</ele>
        <time>2012-07-07T08:55:50Z</time>
      </trkpt>
      <trkpt lat="59.971028" lon="17.7515618">
        <ele>29.9381</ele>
        <time>2012-07-07T08:55:51Z</time>
      </trkpt>
      <trkpt lat="59.9711263" lon="17.7513764">
        <ele>30.8995</ele>
        <time>2012-07-07T08:55:59Z</time>
      </trkpt>
      <trkpt lat="59.9712421" lon="17.751294">
        <ele>32.8223</ele>
        <time>2012-07-07T08:56:06Z</time>
      </trkpt>
      <trkpt lat="59.9713084" lon="17.7512248">
        <ele>33.3029</ele>
        <time>2012-07-07T08:56:11Z</time>
      </trkpt>
      <trkpt lat="59.9714285" lon="17.751094">
        <ele>32.8223</ele>
        <time>2012-07-07T08:56:20Z</time>
      </trkpt>
      <trkpt lat="59.9715514" lon="17.7510006">
        <ele>32.3416</ele>
        <time>2012-07-07T08:56:28Z</time>
      </trkpt>
      <trkpt lat="59.9716374" lon="17.750898">
        <ele>31.3801</ele>
        <time>2012-07-07T08:56:35Z</time>
      </trkpt>
      <trkpt lat="59.971672" lon="17.7507457">
        <ele>30.4188</ele>
        <time>2012-07-07T08:56:41Z</time>
      </trkpt>
      <trkpt lat="59.9717588" lon="17.7505222">
        <ele>32.3416</ele>
        <time>2012-07-07T08:56:50Z</time>
      </trkpt>
      <trkpt lat="59.9718329" lon="17.7503904">
        <ele>31.3801</ele>
        <time>2012-07-07T08:56:57Z</time>
      </trkpt>
      <trkpt lat="59.9718594" lon="17.7503237">
        <ele>30.8995</ele>
        <time>2012-07-07T08:57:00Z</time>
      </trkpt>
      <trkpt lat="59.9719284" lon="17.7501981">
        <ele>30.4188</ele>
        <time>2012-07-07T08:57:07Z</time>
      </trkpt>
      <trkpt lat="59.9719712" lon="17.7500947">
        <ele>30.4188</ele>
        <time>2012-07-07T08:57:12Z</time>
      </trkpt>
      <trkpt lat="59.9720082" lon="17.750004">
        <ele>31.3801</ele>
        <time>2012-07-07T08:57:16Z</time>
      </trkpt>
      <trkpt lat="59.9720351" lon="17.7499413">
        <ele>32.8223</ele>
        <time>2012-07-07T08:57:19Z</time>
      </trkpt>
      <trkpt lat="59.9720648" lon="17.7498056">
        <ele>35.2255</ele>
        <time>2012-07-07T08:57:23Z</time>
      </trkpt>
      <trkpt lat="59.9721315" lon="17.7497201">
        <ele>36.6675</ele>
        <time>2012-07-07T08:57:29Z</time>
      </trkpt>
      <trkpt lat="59.9721532" lon="17.7496514">
        <ele>37.1481</ele>
        <time>2012-07-07T08:57:31Z</time>
      </trkpt>
      <trkpt lat="59.9722339" lon="17.7495156">
        <ele>38.1094</ele>
        <time>2012-07-07T08:57:38Z</time>
      </trkpt>
      <trkpt lat="59.9723031" lon="17.7493611">
        <ele>38.1094</ele>
        <time>2012-07-07T08:57:45Z</time>
      </trkpt>
      <trkpt lat="59.972335" lon="17.7492286">
        <ele>38.1094</ele>
        <time>2012-07-07T08:57:49Z</time>
      </trkpt>
      <trkpt lat="59.9723484" lon="17.749178">
        <ele>37.6287</ele>
        <time>2012-07-07T08:57:51Z</time>
      </trkpt>
      <trkpt lat="59.9724434" lon="17.749041">
        <ele>39.0707</ele>
        <time>2012-07-07T08:57:58Z</time>
      </trkpt>
      <trkpt lat="59.9725284" lon="17.7488804">
        <ele>40.0321</ele>
        <time>2012-07-07T08:58:05Z</time>
      </trkpt>
      <trkpt lat="59.9725428" lon="17.7488376">
        <ele>38.5901</ele>
        <time>2012-07-07T08:58:07Z</time>
      </trkpt>
      <trkpt lat="59.972606" lon="17.7486463">
        <ele>36.1868</ele>
        <time>2012-07-07T08:58:14Z</time>
      </trkpt>
      <trkpt lat="59.9726581" lon="17.7485317">
        <ele>34.2642</ele>
        <time>2012-07-07T08:58:20Z</time>
      </trkpt>
      <trkpt lat="59.972666" lon="17.7485071">
        <ele>33.3029</ele>
        <time>2012-07-07T08:58:21Z</time>
      </trkpt>
      <trkpt lat="59.9727537" lon="17.7483864">
        <ele>30.4188</ele>
        <time>2012-07-07T08:58:27Z</time>
      </trkpt>
      <trkpt lat="59.9728479" lon="17.7482463">
        <ele>29.9381</ele>
        <time>2012-07-07T08:58:34Z</time>
      </trkpt>
      <trkpt lat="59.9729121" lon="17.7480636">
        <ele>28.9769</ele>
        <time>2012-07-07T08:58:42Z</time>
      </trkpt>
      <trkpt lat="59.972996" lon="17.7479144">
        <ele>31.3801</ele>
        <time>2012-07-07T08:58:49Z</time>
      </trkpt>
      <trkpt lat="59.9731131" lon="17.7478036">
        <ele>33.7834</ele>
        <time>2012-07-07T08:58:57Z</time>
      </trkpt>
      <trkpt lat="59.9732" lon="17.7477254">
        <ele>35.2255</ele>
        <time>2012-07-07T08:59:03Z</time>
      </trkpt>
      <trkpt lat="59.9732984" lon="17.7475999">
        <ele>35.2255</ele>
        <time>2012-07-07T08:59:11Z</time>
      </trkpt>
      <trkpt lat="59.9733763" lon="17.7475104">
        <ele>34.7449</ele>
        <time>2012-07-07T08:59:17Z</time>
      </trkpt>
      <trkpt lat="59.9734724" lon="17.7473751">
        <ele>34.7449</ele>
        <time>2012-07-07T08:59:25Z</time>
      </trkpt>
      <trkpt lat="59.9735784" lon="17.7472703">
        <ele>37.1481</ele>
        <time>2012-07-07T08:59:33Z</time>
      </trkpt>
      <trkpt lat="59.9736705" lon="17.7471922">
        <ele>36.6675</ele>
        <time>2012-07-07T08:59:40Z</time>
      </trkpt>
      <trkpt lat="59.9737498" lon="17.7471486">
        <ele>37.6287</ele>
        <time>2012-07-07T08:59:45Z</time>
      </trkpt>
      <trkpt lat="59.9738414" lon="17.7470359">
        <ele>32.8223</ele>
        <time>2012-07-07T08:59:54Z</time>
      </trkpt>
      <trkpt lat="59.9739487" lon="17.7468876">
        <ele>33.7834</ele>
        <time>2012-07-07T09:00:02Z</time>
      </trkpt>
      <trkpt lat="59.97403" lon="17.7467777">
        <ele>35.7061</ele>
        <time>2012-07-07T09:00:08Z</time>
      </trkpt>
      <trkpt lat="59.9741226" lon="17.7466869">
        <ele>36.6675</ele>
        <time>2012-07-07T09:00:14Z</time>
      </trkpt>
      <trkpt lat="59.9742201" lon="17.7465717">
        <ele>37.1481</ele>
        <time>2012-07-07T09:00:21Z</time>
      </trkpt>
      <trkpt lat="59.9742968" lon="17.746431">
        <ele>37.6287</ele>
        <time>2012-07-07T09:00:28Z</time>
      </trkpt>
      <trkpt lat="59.974375" lon="17.7462853">
        <ele>39.5513</ele>
        <time>2012-07-07T09:00:35Z</time>
      </trkpt>
      <trkpt lat="59.9744651" lon="17.7461336">
        <ele>38.5901</ele>
        <time>2012-07-07T09:00:43Z</time>
      </trkpt>
      <trkpt lat="59.9745355" lon="17.7460553">
        <ele>37.1481</ele>
        <time>2012-07-07T09:00:49Z</time>
      </trkpt>
      <trkpt lat="59.9746144" lon="17.7459577">
        <ele>35.7061</ele>
        <time>2012-07-07T09:00:56Z</time>
      </trkpt>
      <trkpt lat="59.9746861" lon="17.7457408">
        <ele>35.2255</ele>
        <time>2012-07-07T09:01:04Z</time>
      </trkpt>
      <trkpt lat="59.9747543" lon="17.7456274">
        <ele>33.7834</ele>
        <time>2012-07-07T09:01:10Z</time>
      </trkpt>
      <trkpt lat="59.9747945" lon="17.7455522">
        <ele>33.3029</ele>
        <time>2012-07-07T09:01:14Z</time>
      </trkpt>
      <trkpt lat="59.9748499" lon="17.7454455">
        <ele>32.8223</ele>
        <time>2012-07-07T09:01:19Z</time>
      </trkpt>
      <trkpt lat="59.9748931" lon="17.7452991">
        <ele>31.8607</ele>
        <time>2012-07-07T09:01:25Z</time>
      </trkpt>
      <trkpt lat="59.9749648" lon="17.7451379">
        <ele>31.8607</ele>
        <time>2012-07-07T09:01:32Z</time>
      </trkpt>
      <trkpt lat="59.9750097" lon="17.7449788">
        <ele>31.3801</ele>
        <time>2012-07-07T09:01:38Z</time>
      </trkpt>
      <trkpt lat="59.9750539" lon="17.7448172">
        <ele>33.3029</ele>
        <time>2012-07-07T09:01:44Z</time>
      </trkpt>
      <trkpt lat="59.9751037" lon="17.7446264">
        <ele>32.8223</ele>
        <time>2012-07-07T09:01:51Z</time>
      </trkpt>
      <trkpt lat="59.9751437" lon="17.7444335">
        <ele>34.7449</ele>
        <time>2012-07-07T09:01:58Z</time>
      </trkpt>
      <trkpt lat="59.9751879" lon="17.7442406">
        <ele>35.7061</ele>
        <time>2012-07-07T09:02:05Z</time>
      </trkpt>
      <trkpt lat="59.9752401" lon="17.743965">
        <ele>36.6675</ele>
        <time>2012-07-07T09:02:15Z</time>
      </trkpt>
      <trkpt lat="59.9752981" lon="17.7436974">
        <ele>37.6287</ele>
        <time>2012-07-07T09:02:25Z</time>
      </trkpt>
      <trkpt lat="59.9753373" lon="17.7435195">
        <ele>37.6287</ele>
        <time>2012-07-07T09:02:32Z</time>
      </trkpt>
      <trkpt lat="59.97536" lon="17.7433193">
        <ele>36.6675</ele>
        <time>2012-07-07T09:02:39Z</time>
      </trkpt>
      <trkpt lat="59.9753923" lon="17.7431803">
        <ele>35.7061</ele>
        <time>2012-07-07T09:02:44Z</time>
      </trkpt>
      <trkpt lat="59.975429" lon="17.742976">
        <ele>35.2255</ele>
        <time>2012-07-07T09:02:51Z</time>
      </trkpt>
      <trkpt lat="59.9754882" lon="17.7427727">
        <ele>34.2642</ele>
        <time>2012-07-07T09:02:59Z</time>
      </trkpt>
      <trkpt lat="59.97554" lon="17.7425986">
        <ele>32.8223</ele>
        <time>2012-07-07T09:03:06Z</time>
      </trkpt>
      <trkpt lat="59.975584" lon="17.7424561">
        <ele>33.3029</ele>
        <time>2012-07-07T09:03:12Z</time>
      </trkpt>
      <trkpt lat="59.9756357" lon="17.7422837">
        <ele>34.2642</ele>
        <time>2012-07-07T09:03:19Z</time>
      </trkpt>
      <trkpt lat="59.9756716" lon="17.7421473">
        <ele>33.3029</ele>
        <time>2012-07-07T09:03:24Z</time>
      </trkpt>
      <trkpt lat="59.9756995" lon="17.74202">
        <ele>31.8607</ele>
        <time>2012-07-07T09:03:29Z</time>
      </trkpt>
      <trkpt lat="59.9757229" lon="17.7419163">
        <ele>32.3416</ele>
        <time>2012-07-07T09:03:33Z</time>
      </trkpt>
      <trkpt lat="59.9757566" lon="17.7417613">
        <ele>31.3801</ele>
        <time>2012-07-07T09:03:38Z</time>
      </trkpt>
      <trkpt lat="59.9757908" lon="17.7415776">
        <ele>31.8607</ele>
        <time>2012-07-07T09:03:44Z</time>
      </trkpt>
      <trkpt lat="59.9758309" lon="17.7413894">
        <ele>30.8995</ele>
        <time>2012-07-07T09:03:51Z</time>
      </trkpt>
      <trkpt lat="59.9758735" lon="17.7412181">
        <ele>29.4575</ele>
        <time>2012-07-07T09:03:58Z</time>
      </trkpt>
      <trkpt lat="59.9758865" lon="17.7411658">
        <ele>29.9381</ele>
        <time>2012-07-07T09:04:00Z</time>
      </trkpt>
      <trkpt lat="59.9759143" lon="17.7410799">
        <ele>30.4188</ele>
        <time>2012-07-07T09:04:04Z</time>
      </trkpt>
      <trkpt lat="59.9759234" lon="17.7410202">
        <ele>30.8995</ele>
        <time>2012-07-07T09:04:06Z</time>
      </trkpt>
      <trkpt lat="59.9759859" lon="17.7408275">
        <ele>31.3801</ele>
        <time>2012-07-07T09:04:14Z</time>
      </trkpt>
      <trkpt lat="59.9760451" lon="17.740686">
        <ele>31.8607</ele>
        <time>2012-07-07T09:04:20Z</time>
      </trkpt>
      <trkpt lat="59.9761065" lon="17.7405145">
        <ele>31.8607</ele>
        <time>2012-07-07T09:04:28Z</time>
      </trkpt>
      <trkpt lat="59.9761612" lon="17.7403323">
        <ele>28.9769</ele>
        <time>2012-07-07T09:04:36Z</time>
      </trkpt>
      <trkpt lat="59.9762268" lon="17.740135">
        <ele>29.4575</ele>
        <time>2012-07-07T09:04:45Z</time>
      </trkpt>
      <trkpt lat="59.9762938" lon="17.7399582">
        <ele>28.9769</ele>
        <time>2012-07-07T09:04:52Z</time>
      </trkpt>
      <trkpt lat="59.9763563" lon="17.7398349">
        <ele>28.9769</ele>
        <time>2012-07-07T09:04:58Z</time>
      </trkpt>
      <trkpt lat="59.9764086" lon="17.7397266">
        <ele>28.9769</ele>
        <time>2012-07-07T09:05:03Z</time>
      </trkpt>
      <trkpt lat="59.9765054" lon="17.7395931">
        <ele>30.8995</ele>
        <time>2012-07-07T09:05:10Z</time>
      </trkpt>
      <trkpt lat="59.9765976" lon="17.7394981">
        <ele>29.9381</ele>
        <time>2012-07-07T09:05:17Z</time>
      </trkpt>
      <trkpt lat="59.9766952" lon="17.7394082">
        <ele>29.4575</ele>
        <time>2012-07-07T09:05:25Z</time>
      </trkpt>
      <trkpt lat="59.9768122" lon="17.7393235">
        <ele>30.4188</ele>
        <time>2012-07-07T09:05:34Z</time>
      </trkpt>
      <trkpt lat="59.9769117" lon="17.7392942">
        <ele>34.2642</ele>
        <time>2012-07-07T09:05:41Z</time>
      </trkpt>
      <trkpt lat="59.9769957" lon="17.7392585">
        <ele>35.2255</ele>
        <time>2012-07-07T09:05:48Z</time>
      </trkpt>
      <trkpt lat="59.9770954" lon="17.7392015">
        <ele>36.6675</ele>
        <time>2012-07-07T09:05:55Z</time>
      </trkpt>
      <trkpt lat="59.9771829" lon="17.7391492">
        <ele>37.1481</ele>
        <time>2012-07-07T09:06:02Z</time>
      </trkpt>
      <trkpt lat="59.9772977" lon="17.7391014">
        <ele>37.6287</ele>
        <time>2012-07-07T09:06:10Z</time>
      </trkpt>
      <trkpt lat="59.9773956" lon="17.73905">
        <ele>39.5513</ele>
        <time>2012-07-07T09:06:16Z</time>
      </trkpt>
      <trkpt lat="59.9774779" lon="17.7389791">
        <ele>39.5513</ele>
        <time>2012-07-07T09:06:23Z</time>
      </trkpt>
      <trkpt lat="59.9775316" lon="17.738942">
        <ele>40.5128</ele>
        <time>2012-07-07T09:06:28Z</time>
      </trkpt>
      <trkpt lat="59.9776498" lon="17.7389497">
        <ele>38.1094</ele>
        <time>2012-07-07T09:06:36Z</time>
      </trkpt>
      <trkpt lat="59.9777644" lon="17.7389714">
        <ele>40.0321</ele>
        <time>2012-07-07T09:06:43Z</time>
      </trkpt>
      <trkpt lat="59.977853" lon="17.7390286">
        <ele>37.1481</ele>
        <time>2012-07-07T09:06:50Z</time>
      </trkpt>
      <trkpt lat="59.9779532" lon="17.739088">
        <ele>37.6287</ele>
        <time>2012-07-07T09:06:56Z</time>
      </trkpt>
      <trkpt lat="59.9780047" lon="17.739156">
        <ele>37.1481</ele>
        <time>2012-07-07T09:07:01Z</time>
      </trkpt>
      <trkpt lat="59.9780672" lon="17.7392072">
        <ele>35.2255</ele>
        <time>2012-07-07T09:07:06Z</time>
      </trkpt>
      <trkpt lat="59.9781311" lon="17.73923">
        <ele>33.7834</ele>
        <time>2012-07-07T09:07:11Z</time>
      </trkpt>
      <trkpt lat="59.978191" lon="17.7392424">
        <ele>35.7061</ele>
        <time>2012-07-07T09:07:15Z</time>
      </trkpt>
      <trkpt lat="59.9782207" lon="17.7392376">
        <ele>34.7449</ele>
        <time>2012-07-07T09:07:17Z</time>
      </trkpt>
      <trkpt lat="59.9783044" lon="17.7392272">
        <ele>37.1481</ele>
        <time>2012-07-07T09:07:22Z</time>
      </trkpt>
      <trkpt lat="59.9784036" lon="17.7392588">
        <ele>36.6675</ele>
        <time>2012-07-07T09:07:29Z</time>
      </trkpt>
      <trkpt lat="59.978435" lon="17.7392626">
        <ele>38.1094</ele>
        <time>2012-07-07T09:07:31Z</time>
      </trkpt>
      <trkpt lat="59.9785512" lon="17.7392994">
        <ele>38.1094</ele>
        <time>2012-07-07T09:07:38Z</time>
      </trkpt>
      <trkpt lat="59.9786061" lon="17.7392787">
        <ele>38.1094</ele>
        <time>2012-07-07T09:07:42Z</time>
      </trkpt>
      <trkpt lat="59.9786567" lon="17.7392699">
        <ele>39.5513</ele>
        <time>2012-07-07T09:07:48Z</time>
      </trkpt>
      <trkpt lat="59.9787195" lon="17.7392655">
        <ele>40.0321</ele>
        <time>2012-07-07T09:07:54Z</time>
      </trkpt>
      <trkpt lat="59.9787153" lon="17.7392549">
        <ele>40.5128</ele>
        <time>2012-07-07T09:07:58Z</time>
      </trkpt>
      <trkpt lat="59.9787051" lon="17.7392541">
        <ele>40.5128</ele>
        <time>2012-07-07T09:08:04Z</time>
      </trkpt>
      <trkpt lat="59.9786947" lon="17.7392337">
        <ele>40.9934</ele>
        <time>2012-07-07T09:08:15Z</time>
      </trkpt>
      <trkpt lat="59.9786916" lon="17.7392734">
        <ele>44.358</ele>
        <time>2012-07-07T09:08:23Z</time>
      </trkpt>
      <trkpt lat="59.9787062" lon="17.7392697">
        <ele>42.4354</ele>
        <time>2012-07-07T09:08:30Z</time>
      </trkpt>
      <trkpt lat="59.9787944" lon="17.7392989">
        <ele>40.5128</ele>
        <time>2012-07-07T09:08:35Z</time>
      </trkpt>
      <trkpt lat="59.978847" lon="17.7393406">
        <ele>39.5513</ele>
        <time>2012-07-07T09:08:39Z</time>
      </trkpt>
      <trkpt lat="59.9788708" lon="17.7395009">
        <ele>38.5901</ele>
        <time>2012-07-07T09:08:45Z</time>
      </trkpt>
      <trkpt lat="59.9788698" lon="17.7395245">
        <ele>38.5901</ele>
        <time>2012-07-07T09:08:46Z</time>
      </trkpt>
      <trkpt lat="59.9788396" lon="17.7396746">
        <ele>40.0321</ele>
        <time>2012-07-07T09:08:52Z</time>
      </trkpt>
      <trkpt lat="59.9788092" lon="17.7397448">
        <ele>39.0707</ele>
        <time>2012-07-07T09:08:56Z</time>
      </trkpt>
      <trkpt lat="59.9788298" lon="17.7399189">
        <ele>40.9934</ele>
        <time>2012-07-07T09:09:03Z</time>
      </trkpt>
      <trkpt lat="59.9788791" lon="17.7399288">
        <ele>40.0321</ele>
        <time>2012-07-07T09:09:09Z</time>
      </trkpt>
    </trkseg>
  </trk>
</gpx>